Ketchikan, AK

8:16 PM AKDT on July 28, 2015 (GMT -0800)
Ketchikan International | | Change Station
CLOSE
Current Station
Airport
Location: Ketchikan,
Elevation: 95 ft
Nearby Weather Stations

Elev 95 ft 55.36 °N, 131.71 °W | Updated 23 minutes ago

Light Rain
Light Rain
57 °F
Feels Like 57 °F
N
7
Wind Variable Wind from SE

Today
High -- | Low -- °F
--% Chance of Precip.
Yesterday
High -- | Low -- °F
Precip. -- in
4:46 AM 8:58 PM
Waxing Gibbous, 93% visible
Pressure 30.15 in
Visibility 10.0 miles
Clouds Mostly Cloudy 2300 ft
Overcast 3000 ft
Dew Point 54 °F
Humidity 88%
Rainfall 0.04 in
Snow Depth Not available.
UV 0 out of 12
Pollen Not available.
Air Quality Not available.
Flu Activity Not available.
METAR PAKT 290353Z 13006KT 10SM -RA BKN023 OVC030 14/12 A3015 RMK AO2 SLP210 HARBOR

More Conditions Fewer Conditions

Pressure 30.15 in
Visibility 10.0 miles
Clouds Mostly Cloudy 2300 ft
Overcast 3000 ft
Dew Point 54 °F
Humidity 88%
Rainfall 0.04 in
Snow Depth Not available.
UV 0 out of 12
Pollen Not available.
Air Quality Not available.
Flu Activity Not available.
METAR PAKT 290353Z 13006KT 10SM -RA BKN023 OVC030 14/12 A3015 RMK AO2 SLP210 HARBOR

More Conditions Fewer Conditions

10-Day Weather Forecast

×

Almanac

Astronomy

Jul. 28, 2015 Rise Set
Actual Time
Civil Twilight
Nautical Twilight
Astronomical Twilight
Moon
Length of Visible Light
Length of Day
Tomorrow will be .
, % of the Moon is Illuminated

Today's Extremes

State Highs State Lows

Community

WunderPhotos

Upload Photos

1,842,040 photos uploaded!

WunderBlogs® & News

Nearby

Air Quality

  Air Quality AQ Index Pollutant
Not available.

Snow Depth

Station Depth Elevation

Earthquake Activity

City Distance Mag. Time & Date
Minimum magnitude displayed is 2.5.

Coastal Water Temperatures

Place Temperature

Stations

Nearby Weather Stations

Station Location Temp. Windchill Dew Point Humidity Wind Precip. Elev Updated Type